Jacarei, Brazil
Current Conditions -  °F | °C
As of 4:00 PM on Thursday 29 Jan 2015 (Local Time) from SBSJ Reporting Station
Few Clouds Few Clouds  
Wind Chill: 91°   Ceiling: Unl
Heat Index: 93°   Visibility: 6mi
Dew Point: 64°   Wind: 10mph
Humidity: 41%   Direction: 320°NW
Pressure: 29.94"   Gusts: NA
Location:  23.3°S, 45.96°W
Report Text: SBSJ 291800Z 32009KT 9999 FEW040 33/18 Q1014
Loading
Personal Weather Stations






























Interactive Weather Map New forecast layout! Learn more

10-Day Weather Forecast

Advertisements
Track Severe Weather on mobile